sensor_id;sensor_type;location;lat;lon;timestamp;P1;durP1;ratioP1;P2;durP2;ratioP2
50249;SDS011;36133;42.522;27.456;2022-09-14T00:02:15;8.40;;;3.00;;
50249;SDS011;36133;42.522;27.456;2022-09-14T00:04:40;8.05;;;3.78;;
50249;SDS011;36133;42.522;27.456;2022-09-14T00:07:06;6.18;;;4.28;;
50249;SDS011;36133;42.522;27.456;2022-09-14T00:09:33;6.40;;;4.18;;
50249;SDS011;36133;42.522;27.456;2022-09-14T00:11:59;7.15;;;3.75;;
50249;SDS011;36133;42.522;27.456;2022-09-14T00:14:24;9.32;;;4.40;;
50249;SDS011;36133;42.522;27.456;2022-09-14T00:16:50;5.13;;;3.75;;
50249;SDS011;36133;42.522;27.456;2022-09-14T00:19:17;4.97;;;3.58;;
50249;SDS011;36133;42.522;27.456;2022-09-14T00:21:48;6.15;;;3.80;;
50249;SDS011;36133;42.522;27.456;2022-09-14T00:24:15;6.57;;;3.97;;
50249;SDS011;36133;42.522;27.456;2022-09-14T00:26:40;6.32;;;3.90;;
50249;SDS011;36133;42.522;27.456;2022-09-14T00:29:06;7.15;;;3.88;;
50249;SDS011;36133;42.522;27.456;2022-09-14T00:31:32;4.40;;;3.47;;
50249;SDS011;36133;42.522;27.456;2022-09-14T00:34:00;6.53;;;4.20;;
50249;SDS011;36133;42.522;27.456;2022-09-14T00:36:27;4.13;;;3.70;;
50249;SDS011;36133;42.522;27.456;2022-09-14T00:38:54;5.65;;;3.85;;
50249;SDS011;36133;42.522;27.456;2022-09-14T00:41:28;5.65;;;3.72;;
50249;SDS011;36133;42.522;27.456;2022-09-14T00:44:03;7.72;;;3.38;;
50249;SDS011;36133;42.522;27.456;2022-09-14T00:46:50;5.65;;;3.47;;
50249;SDS011;36133;42.522;27.456;2022-09-14T00:49:23;4.20;;;3.10;;
50249;SDS011;36133;42.522;27.456;2022-09-14T00:51:53;5.00;;;3.15;;
50249;SDS011;36133;42.522;27.456;2022-09-14T00:54:28;5.90;;;3.03;;
50249;SDS011;36133;42.522;27.456;2022-09-14T00:56:54;4.38;;;3.00;;
50249;SDS011;36133;42.522;27.456;2022-09-14T00:59:25;4.18;;;2.80;;
50249;SDS011;36133;42.522;27.456;2022-09-14T01:01:53;4.90;;;3.03;;
50249;SDS011;36133;42.522;27.456;2022-09-14T01:04:19;5.45;;;3.38;;
50249;SDS011;36133;42.522;27.456;2022-09-14T01:12:43;5.90;;;3.03;;
50249;SDS011;36133;42.522;27.456;2022-09-14T01:18:43;4.25;;;2.92;;
50249;SDS011;36133;42.522;27.456;2022-09-14T01:21:13;4.22;;;3.22;;
50249;SDS011;36133;42.522;27.456;2022-09-14T01:23:48;5.20;;;3.08;;
50249;SDS011;36133;42.522;27.456;2022-09-14T01:29:44;3.83;;;3.17;;
50249;SDS011;36133;42.522;27.456;2022-09-14T01:32:19;4.40;;;3.40;;
50249;SDS011;36133;42.522;27.456;2022-09-14T01:35:03;4.95;;;3.47;;
50249;SDS011;36133;42.522;27.456;2022-09-14T01:37:58;4.75;;;3.35;;
50249;SDS011;36133;42.522;27.456;2022-09-14T01:40:32;9.45;;;4.55;;
50249;SDS011;36133;42.522;27.456;2022-09-14T01:43:47;8.90;;;4.10;;
50249;SDS011;36133;42.522;27.456;2022-09-14T01:46:12;8.30;;;4.50;;
50249;SDS011;36133;42.522;27.456;2022-09-14T01:48:57;5.25;;;3.53;;
50249;SDS011;36133;42.522;27.456;2022-09-14T01:51:46;6.05;;;4.07;;
50249;SDS011;36133;42.522;27.456;2022-09-14T01:54:21;4.55;;;3.90;;
50249;SDS011;36133;42.522;27.456;2022-09-14T01:59:38;6.30;;;4.15;;
50249;SDS011;36133;42.522;27.456;2022-09-14T02:02:15;8.05;;;4.03;;
50249;SDS011;36133;42.522;27.456;2022-09-14T02:07:40;4.53;;;3.67;;
50249;SDS011;36133;42.522;27.456;2022-09-14T02:10:07;7.53;;;3.97;;
50249;SDS011;36133;42.522;27.456;2022-09-14T02:12:35;9.50;;;4.20;;
50249;SDS011;36133;42.522;27.456;2022-09-14T02:15:02;4.25;;;3.28;;
50249;SDS011;36133;42.522;27.456;2022-09-14T02:17:29;7.82;;;3.50;;
50249;SDS011;36133;42.522;27.456;2022-09-14T02:19:56;4.22;;;2.95;;
50249;SDS011;36133;42.522;27.456;2022-09-14T02:22:25;6.13;;;3.53;;
50249;SDS011;36133;42.522;27.456;2022-09-14T02:24:52;6.15;;;3.10;;
50249;SDS011;36133;42.522;27.456;2022-09-14T02:27:19;7.20;;;3.20;;
50249;SDS011;36133;42.522;27.456;2022-09-14T02:29:44;4.18;;;3.35;;
50249;SDS011;36133;42.522;27.456;2022-09-14T02:38:05;8.38;;;3.10;;
50249;SDS011;36133;42.522;27.456;2022-09-14T02:40:50;7.45;;;3.55;;
50249;SDS011;36133;42.522;27.456;2022-09-14T02:46:24;5.13;;;3.50;;
50249;SDS011;36133;42.522;27.456;2022-09-14T02:55:14;4.45;;;2.95;;
50249;SDS011;36133;42.522;27.456;2022-09-14T02:58:04;5.55;;;3.85;;
50249;SDS011;36133;42.522;27.456;2022-09-14T03:00:35;7.38;;;3.72;;
50249;SDS011;36133;42.522;27.456;2022-09-14T03:03:03;7.72;;;3.55;;
50249;SDS011;36133;42.522;27.456;2022-09-14T03:05:30;8.88;;;3.40;;
50249;SDS011;36133;42.522;27.456;2022-09-14T03:07:57;8.43;;;3.95;;
50249;SDS011;36133;42.522;27.456;2022-09-14T03:10:23;9.98;;;3.15;;
50249;SDS011;36133;42.522;27.456;2022-09-14T03:12:48;7.07;;;3.47;;
50249;SDS011;36133;42.522;27.456;2022-09-14T03:15:14;7.22;;;3.60;;
50249;SDS011;36133;42.522;27.456;2022-09-14T03:17:43;4.38;;;3.03;;
50249;SDS011;36133;42.522;27.456;2022-09-14T03:20:10;9.15;;;3.40;;
50249;SDS011;36133;42.522;27.456;2022-09-14T03:22:35;5.28;;;3.40;;
50249;SDS011;36133;42.522;27.456;2022-09-14T03:25:01;6.03;;;3.55;;
50249;SDS011;36133;42.522;27.456;2022-09-14T03:27:26;8.60;;;3.40;;
50249;SDS011;36133;42.522;27.456;2022-09-14T03:29:52;5.38;;;3.42;;
50249;SDS011;36133;42.522;27.456;2022-09-14T03:32:17;7.43;;;3.65;;
50249;SDS011;36133;42.522;27.456;2022-09-14T03:34:43;5.13;;;3.85;;
50249;SDS011;36133;42.522;27.456;2022-09-14T03:37:09;7.82;;;3.75;;
50249;SDS011;36133;42.522;27.456;2022-09-14T03:39:34;5.53;;;4.00;;
50249;SDS011;36133;42.522;27.456;2022-09-14T03:42:00;6.07;;;4.05;;
50249;SDS011;36133;42.522;27.456;2022-09-14T03:44:25;5.38;;;3.90;;
50249;SDS011;36133;42.522;27.456;2022-09-14T03:46:51;6.18;;;4.03;;
50249;SDS011;36133;42.522;27.456;2022-09-14T03:49:16;8.57;;;4.05;;
50249;SDS011;36133;42.522;27.456;2022-09-14T03:51:42;5.82;;;3.90;;
50249;SDS011;36133;42.522;27.456;2022-09-14T03:54:07;7.93;;;4.25;;
50249;SDS011;36133;42.522;27.456;2022-09-14T03:56:33;7.75;;;4.03;;
50249;SDS011;36133;42.522;27.456;2022-09-14T03:58:58;7.20;;;4.35;;
50249;SDS011;36133;42.522;27.456;2022-09-14T04:01:24;7.40;;;4.25;;
50249;SDS011;36133;42.522;27.456;2022-09-14T04:03:50;8.98;;;4.50;;
50249;SDS011;36133;42.522;27.456;2022-09-14T04:06:16;7.22;;;4.25;;
50249;SDS011;36133;42.522;27.456;2022-09-14T04:08:43;9.15;;;4.95;;
50249;SDS011;36133;42.522;27.456;2022-09-14T04:11:14;9.30;;;5.15;;
50249;SDS011;36133;42.522;27.456;2022-09-14T04:13:41;9.95;;;4.78;;
50249;SDS011;36133;42.522;27.456;2022-09-14T04:16:07;9.10;;;4.43;;
50249;SDS011;36133;42.522;27.456;2022-09-14T04:18:33;12.13;;;4.78;;
50249;SDS011;36133;42.522;27.456;2022-09-14T04:21:02;8.25;;;4.70;;
50249;SDS011;36133;42.522;27.456;2022-09-14T04:23:31;7.70;;;4.63;;
50249;SDS011;36133;42.522;27.456;2022-09-14T04:25:57;8.63;;;4.38;;
50249;SDS011;36133;42.522;27.456;2022-09-14T04:28:22;8.32;;;4.80;;
50249;SDS011;36133;42.522;27.456;2022-09-14T04:30:58;11.98;;;5.28;;
50249;SDS011;36133;42.522;27.456;2022-09-14T04:33:25;10.95;;;4.90;;
50249;SDS011;36133;42.522;27.456;2022-09-14T04:35:58;10.35;;;4.85;;
50249;SDS011;36133;42.522;27.456;2022-09-14T04:38:28;10.60;;;5.00;;
50249;SDS011;36133;42.522;27.456;2022-09-14T04:40:54;9.60;;;4.30;;
50249;SDS011;36133;42.522;27.456;2022-09-14T04:43:21;6.25;;;4.07;;
50249;SDS011;36133;42.522;27.456;2022-09-14T04:45:47;6.25;;;4.38;;
50249;SDS011;36133;42.522;27.456;2022-09-14T04:48:13;6.95;;;4.30;;
50249;SDS011;36133;42.522;27.456;2022-09-14T04:50:39;7.82;;;4.07;;
50249;SDS011;36133;42.522;27.456;2022-09-14T04:53:04;9.43;;;4.35;;
50249;SDS011;36133;42.522;27.456;2022-09-14T04:55:30;6.55;;;4.28;;
50249;SDS011;36133;42.522;27.456;2022-09-14T04:57:55;8.88;;;4.57;;
50249;SDS011;36133;42.522;27.456;2022-09-14T05:00:21;7.15;;;4.40;;
50249;SDS011;36133;42.522;27.456;2022-09-14T05:02:46;8.70;;;4.03;;
50249;SDS011;36133;42.522;27.456;2022-09-14T05:05:12;6.95;;;4.43;;
50249;SDS011;36133;42.522;27.456;2022-09-14T05:07:38;8.05;;;4.85;;
50249;SDS011;36133;42.522;27.456;2022-09-14T05:10:03;7.25;;;4.47;;
50249;SDS011;36133;42.522;27.456;2022-09-14T05:12:30;11.80;;;4.20;;
50249;SDS011;36133;42.522;27.456;2022-09-14T05:14:55;8.48;;;4.57;;
50249;SDS011;36133;42.522;27.456;2022-09-14T05:17:21;12.40;;;3.78;;
50249;SDS011;36133;42.522;27.456;2022-09-14T05:19:46;8.88;;;4.13;;
50249;SDS011;36133;42.522;27.456;2022-09-14T05:22:12;9.38;;;3.85;;
50249;SDS011;36133;42.522;27.456;2022-09-14T05:24:39;8.95;;;4.20;;
50249;SDS011;36133;42.522;27.456;2022-09-14T05:27:05;10.38;;;3.92;;
50249;SDS011;36133;42.522;27.456;2022-09-14T05:29:30;12.73;;;4.30;;
50249;SDS011;36133;42.522;27.456;2022-09-14T05:31:56;8.82;;;3.83;;
50249;SDS011;36133;42.522;27.456;2022-09-14T05:34:22;11.10;;;4.10;;
50249;SDS011;36133;42.522;27.456;2022-09-14T05:36:47;8.25;;;4.13;;
50249;SDS011;36133;42.522;27.456;2022-09-14T05:39:13;13.75;;;4.38;;
50249;SDS011;36133;42.522;27.456;2022-09-14T05:41:38;8.48;;;3.60;;
50249;SDS011;36133;42.522;27.456;2022-09-14T05:44:04;9.10;;;3.75;;
50249;SDS011;36133;42.522;27.456;2022-09-14T05:46:30;10.27;;;3.80;;
50249;SDS011;36133;42.522;27.456;2022-09-14T05:48:56;6.32;;;3.85;;
50249;SDS011;36133;42.522;27.456;2022-09-14T05:51:22;12.63;;;4.22;;
50249;SDS011;36133;42.522;27.456;2022-09-14T05:53:49;11.65;;;4.07;;
50249;SDS011;36133;42.522;27.456;2022-09-14T05:56:16;11.73;;;4.07;;
50249;SDS011;36133;42.522;27.456;2022-09-14T05:58:43;9.48;;;4.28;;
50249;SDS011;36133;42.522;27.456;2022-09-14T06:01:10;18.52;;;5.05;;
50249;SDS011;36133;42.522;27.456;2022-09-14T06:03:38;13.05;;;5.40;;
50249;SDS011;36133;42.522;27.456;2022-09-14T06:06:05;13.48;;;5.55;;
50249;SDS011;36133;42.522;27.456;2022-09-14T06:08:32;8.90;;;5.10;;
50249;SDS011;36133;42.522;27.456;2022-09-14T06:11:01;17.60;;;5.07;;
50249;SDS011;36133;42.522;27.456;2022-09-14T06:13:31;10.18;;;5.00;;
50249;SDS011;36133;42.522;27.456;2022-09-14T06:16:01;10.63;;;4.85;;
50249;SDS011;36133;42.522;27.456;2022-09-14T06:18:29;8.35;;;4.03;;
50249;SDS011;36133;42.522;27.456;2022-09-14T06:24:18;14.13;;;4.10;;
50249;SDS011;36133;42.522;27.456;2022-09-14T06:27:29;12.20;;;3.92;;
50249;SDS011;36133;42.522;27.456;2022-09-14T06:30:10;7.75;;;3.55;;
50249;SDS011;36133;42.522;27.456;2022-09-14T06:32:42;11.20;;;4.05;;
50249;SDS011;36133;42.522;27.456;2022-09-14T06:36:04;7.85;;;3.08;;
50249;SDS011;36133;42.522;27.456;2022-09-14T06:38:49;4.32;;;3.20;;
50249;SDS011;36133;42.522;27.456;2022-09-14T06:41:33;7.55;;;3.75;;
50249;SDS011;36133;42.522;27.456;2022-09-14T06:50:12;6.57;;;3.88;;
50249;SDS011;36133;42.522;27.456;2022-09-14T06:52:58;6.55;;;3.35;;
50249;SDS011;36133;42.522;27.456;2022-09-14T06:55:28;5.72;;;3.08;;
50249;SDS011;36133;42.522;27.456;2022-09-14T06:57:56;5.20;;;2.92;;
50249;SDS011;36133;42.522;27.456;2022-09-14T07:00:25;4.88;;;3.38;;
50249;SDS011;36133;42.522;27.456;2022-09-14T07:02:53;10.75;;;3.85;;
50249;SDS011;36133;42.522;27.456;2022-09-14T07:05:19;5.55;;;3.20;;
50249;SDS011;36133;42.522;27.456;2022-09-14T07:07:49;10.95;;;3.25;;
50249;SDS011;36133;42.522;27.456;2022-09-14T07:10:54;8.60;;;3.47;;
50249;SDS011;36133;42.522;27.456;2022-09-14T07:16:18;4.78;;;2.85;;
50249;SDS011;36133;42.522;27.456;2022-09-14T07:18:51;4.55;;;2.78;;
50249;SDS011;36133;42.522;27.456;2022-09-14T07:21:17;10.57;;;2.80;;
50249;SDS011;36133;42.522;27.456;2022-09-14T07:23:46;4.70;;;2.97;;
50249;SDS011;36133;42.522;27.456;2022-09-14T07:26:13;3.05;;;2.60;;
50249;SDS011;36133;42.522;27.456;2022-09-14T07:31:57;8.18;;;2.90;;
50249;SDS011;36133;42.522;27.456;2022-09-14T07:34:23;5.97;;;2.28;;
50249;SDS011;36133;42.522;27.456;2022-09-14T07:36:49;6.22;;;2.65;;
50249;SDS011;36133;42.522;27.456;2022-09-14T07:39:15;4.35;;;2.22;;
50249;SDS011;36133;42.522;27.456;2022-09-14T07:41:42;5.40;;;2.80;;
50249;SDS011;36133;42.522;27.456;2022-09-14T07:44:08;5.50;;;2.75;;
50249;SDS011;36133;42.522;27.456;2022-09-14T07:46:41;10.38;;;2.67;;
50249;SDS011;36133;42.522;27.456;2022-09-14T07:49:20;8.65;;;2.55;;
50249;SDS011;36133;42.522;27.456;2022-09-14T07:51:51;7.15;;;2.88;;
50249;SDS011;36133;42.522;27.456;2022-09-14T07:54:17;5.80;;;2.60;;
50249;SDS011;36133;42.522;27.456;2022-09-14T07:56:43;6.05;;;2.20;;
50249;SDS011;36133;42.522;27.456;2022-09-14T07:59:10;4.03;;;2.42;;
50249;SDS011;36133;42.522;27.456;2022-09-14T08:01:44;5.65;;;2.50;;
50249;SDS011;36133;42.522;27.456;2022-09-14T08:04:10;3.70;;;2.45;;
50249;SDS011;36133;42.522;27.456;2022-09-14T08:06:48;7.30;;;2.70;;
50249;SDS011;36133;42.522;27.456;2022-09-14T08:09:20;3.78;;;2.47;;
50249;SDS011;36133;42.522;27.456;2022-09-14T08:11:52;5.57;;;2.90;;
50249;SDS011;36133;42.522;27.456;2022-09-14T08:14:18;6.85;;;2.25;;
50249;SDS011;36133;42.522;27.456;2022-09-14T08:16:45;3.95;;;2.20;;
50249;SDS011;36133;42.522;27.456;2022-09-14T08:19:11;4.88;;;2.53;;
50249;SDS011;36133;42.522;27.456;2022-09-14T08:21:49;2.40;;;1.88;;
50249;SDS011;36133;42.522;27.456;2022-09-14T08:24:19;6.75;;;2.22;;
50249;SDS011;36133;42.522;27.456;2022-09-14T08:26:46;11.73;;;2.30;;
50249;SDS011;36133;42.522;27.456;2022-09-14T08:29:13;6.00;;;2.58;;
50249;SDS011;36133;42.522;27.456;2022-09-14T08:31:40;5.25;;;2.10;;
50249;SDS011;36133;42.522;27.456;2022-09-14T08:34:09;3.28;;;1.83;;
50249;SDS011;36133;42.522;27.456;2022-09-14T08:36:47;5.45;;;3.17;;
50249;SDS011;36133;42.522;27.456;2022-09-14T08:39:14;4.78;;;2.38;;
50249;SDS011;36133;42.522;27.456;2022-09-14T08:47:00;5.32;;;2.00;;
50249;SDS011;36133;42.522;27.456;2022-09-14T08:52:55;6.45;;;2.15;;
50249;SDS011;36133;42.522;27.456;2022-09-14T09:03:27;4.18;;;1.73;;
50249;SDS011;36133;42.522;27.456;2022-09-14T09:12:03;4.85;;;2.08;;
50249;SDS011;36133;42.522;27.456;2022-09-14T09:14:39;5.15;;;2.20;;
50249;SDS011;36133;42.522;27.456;2022-09-14T09:20:16;5.10;;;1.90;;
50249;SDS011;36133;42.522;27.456;2022-09-14T09:23:33;9.73;;;2.10;;
50249;SDS011;36133;42.522;27.456;2022-09-14T09:25:58;6.93;;;1.77;;
50249;SDS011;36133;42.522;27.456;2022-09-14T09:28:28;7.28;;;1.92;;
50249;SDS011;36133;42.522;27.456;2022-09-14T09:30:57;5.57;;;2.22;;
50249;SDS011;36133;42.522;27.456;2022-09-14T09:33:26;6.95;;;2.15;;
50249;SDS011;36133;42.522;27.456;2022-09-14T09:35:52;5.82;;;1.60;;
50249;SDS011;36133;42.522;27.456;2022-09-14T09:38:20;4.50;;;1.83;;
50249;SDS011;36133;42.522;27.456;2022-09-14T09:40:53;4.40;;;2.00;;
50249;SDS011;36133;42.522;27.456;2022-09-14T09:43:23;8.98;;;2.00;;
50249;SDS011;36133;42.522;27.456;2022-09-14T09:46:08;6.55;;;1.92;;
50249;SDS011;36133;42.522;27.456;2022-09-14T09:48:40;2.10;;;1.70;;
50249;SDS011;36133;42.522;27.456;2022-09-14T09:51:13;7.88;;;1.80;;
50249;SDS011;36133;42.522;27.456;2022-09-14T09:56:37;3.30;;;1.63;;
50249;SDS011;36133;42.522;27.456;2022-09-14T09:59:27;6.65;;;1.90;;
50249;SDS011;36133;42.522;27.456;2022-09-14T10:02:19;3.13;;;1.80;;
50249;SDS011;36133;42.522;27.456;2022-09-14T10:10:44;5.88;;;2.10;;
50249;SDS011;36133;42.522;27.456;2022-09-14T10:13:28;3.25;;;1.52;;
50249;SDS011;36133;42.522;27.456;2022-09-14T10:18:45;1.98;;;1.73;;
50249;SDS011;36133;42.522;27.456;2022-09-14T10:21:27;3.20;;;1.88;;
50249;SDS011;36133;42.522;27.456;2022-09-14T10:24:03;2.83;;;1.92;;
50249;SDS011;36133;42.522;27.456;2022-09-14T10:26:49;2.42;;;1.80;;
50249;SDS011;36133;42.522;27.456;2022-09-14T10:29:31;3.17;;;2.05;;
50249;SDS011;36133;42.522;27.456;2022-09-14T10:32:24;2.50;;;1.70;;
50249;SDS011;36133;42.522;27.456;2022-09-14T10:34:57;2.92;;;1.70;;
50249;SDS011;36133;42.522;27.456;2022-09-14T10:40:32;3.67;;;1.83;;
50249;SDS011;36133;42.522;27.456;2022-09-14T10:43:15;4.65;;;2.10;;
50249;SDS011;36133;42.522;27.456;2022-09-14T10:45:54;4.25;;;1.90;;
50249;SDS011;36133;42.522;27.456;2022-09-14T10:48:36;3.33;;;1.90;;
50249;SDS011;36133;42.522;27.456;2022-09-14T10:54:13;5.25;;;1.83;;
50249;SDS011;36133;42.522;27.456;2022-09-14T10:59:51;2.42;;;1.80;;
50249;SDS011;36133;42.522;27.456;2022-09-14T11:08:49;3.22;;;1.90;;
50249;SDS011;36133;42.522;27.456;2022-09-14T11:17:45;2.20;;;1.90;;
50249;SDS011;36133;42.522;27.456;2022-09-14T11:26:21;3.10;;;1.35;;
50249;SDS011;36133;42.522;27.456;2022-09-14T11:35:16;3.50;;;1.35;;
50249;SDS011;36133;42.522;27.456;2022-09-14T11:37:55;7.50;;;2.10;;
50249;SDS011;36133;42.522;27.456;2022-09-14T11:40:34;2.55;;;1.52;;
50249;SDS011;36133;42.522;27.456;2022-09-14T11:43:13;3.22;;;2.17;;
50249;SDS011;36133;42.522;27.456;2022-09-14T11:48:17;2.38;;;1.63;;
50249;SDS011;36133;42.522;27.456;2022-09-14T11:50:49;1.92;;;1.50;;
50249;SDS011;36133;42.522;27.456;2022-09-14T11:53:21;2.28;;;1.40;;
50249;SDS011;36133;42.522;27.456;2022-09-14T11:55:49;3.28;;;1.98;;
50249;SDS011;36133;42.522;27.456;2022-09-14T11:58:20;5.10;;;2.22;;
50249;SDS011;36133;42.522;27.456;2022-09-14T12:03:20;4.93;;;2.00;;
50249;SDS011;36133;42.522;27.456;2022-09-14T12:05:47;3.15;;;1.73;;
50249;SDS011;36133;42.522;27.456;2022-09-14T12:13:32;8.48;;;1.67;;
50249;SDS011;36133;42.522;27.456;2022-09-14T12:16:07;1.50;;;1.40;;
50249;SDS011;36133;42.522;27.456;2022-09-14T12:18:54;6.72;;;1.77;;
50249;SDS011;36133;42.522;27.456;2022-09-14T12:21:26;2.20;;;1.90;;
50249;SDS011;36133;42.522;27.456;2022-09-14T12:23:53;2.30;;;1.45;;
50249;SDS011;36133;42.522;27.456;2022-09-14T12:28:54;6.07;;;1.42;;
50249;SDS011;36133;42.522;27.456;2022-09-14T12:34:13;2.40;;;1.40;;
50249;SDS011;36133;42.522;27.456;2022-09-14T12:44:36;2.83;;;1.50;;
50249;SDS011;36133;42.522;27.456;2022-09-14T12:50:15;2.67;;;1.58;;
50249;SDS011;36133;42.522;27.456;2022-09-14T12:52:55;2.72;;;1.70;;
50249;SDS011;36133;42.522;27.456;2022-09-14T12:55:42;5.03;;;1.92;;
50249;SDS011;36133;42.522;27.456;2022-09-14T12:58:22;3.55;;;1.63;;
50249;SDS011;36133;42.522;27.456;2022-09-14T13:04:14;4.15;;;1.80;;
50249;SDS011;36133;42.522;27.456;2022-09-14T13:06:55;6.00;;;2.00;;
50249;SDS011;36133;42.522;27.456;2022-09-14T13:09:29;3.10;;;1.67;;
50249;SDS011;36133;42.522;27.456;2022-09-14T13:12:01;9.63;;;2.00;;
50249;SDS011;36133;42.522;27.456;2022-09-14T13:14:30;5.88;;;2.20;;
50249;SDS011;36133;42.522;27.456;2022-09-14T13:17:21;7.65;;;1.88;;
50249;SDS011;36133;42.522;27.456;2022-09-14T13:19:57;3.50;;;2.03;;
50249;SDS011;36133;42.522;27.456;2022-09-14T13:22:29;3.47;;;1.80;;
50249;SDS011;36133;42.522;27.456;2022-09-14T13:24:57;5.35;;;1.92;;
50249;SDS011;36133;42.522;27.456;2022-09-14T13:27:37;3.03;;;2.05;;
50249;SDS011;36133;42.522;27.456;2022-09-14T13:32:40;19.90;;;2.80;;
50249;SDS011;36133;42.522;27.456;2022-09-14T13:35:27;14.55;;;2.45;;
50249;SDS011;36133;42.522;27.456;2022-09-14T13:37:57;4.15;;;1.90;;
50249;SDS011;36133;42.522;27.456;2022-09-14T13:40:36;3.85;;;2.10;;
50249;SDS011;36133;42.522;27.456;2022-09-14T13:43:04;2.95;;;2.42;;
50249;SDS011;36133;42.522;27.456;2022-09-14T13:45:30;2.80;;;1.70;;
50249;SDS011;36133;42.522;27.456;2022-09-14T13:47:59;7.63;;;1.90;;
50249;SDS011;36133;42.522;27.456;2022-09-14T13:50:25;3.88;;;2.03;;
50249;SDS011;36133;42.522;27.456;2022-09-14T13:52:51;5.10;;;1.80;;
50249;SDS011;36133;42.522;27.456;2022-09-14T13:55:22;3.92;;;1.60;;
50249;SDS011;36133;42.522;27.456;2022-09-14T13:58:06;6.45;;;1.83;;
50249;SDS011;36133;42.522;27.456;2022-09-14T14:00:59;6.57;;;2.55;;
50249;SDS011;36133;42.522;27.456;2022-09-14T14:04:01;2.90;;;2.13;;
50249;SDS011;36133;42.522;27.456;2022-09-14T14:06:39;7.75;;;1.75;;
50249;SDS011;36133;42.522;27.456;2022-09-14T14:09:06;5.35;;;2.00;;
50249;SDS011;36133;42.522;27.456;2022-09-14T14:11:43;4.55;;;1.73;;
50249;SDS011;36133;42.522;27.456;2022-09-14T14:14:21;5.28;;;2.05;;
50249;SDS011;36133;42.522;27.456;2022-09-14T14:19:46;6.50;;;1.98;;
50249;SDS011;36133;42.522;27.456;2022-09-14T14:24:39;3.55;;;1.80;;
50249;SDS011;36133;42.522;27.456;2022-09-14T14:27:26;5.43;;;2.03;;
50249;SDS011;36133;42.522;27.456;2022-09-14T14:30:19;5.45;;;2.03;;
50249;SDS011;36133;42.522;27.456;2022-09-14T14:32:49;4.38;;;2.03;;
50249;SDS011;36133;42.522;27.456;2022-09-14T14:35:17;4.25;;;2.03;;
50249;SDS011;36133;42.522;27.456;2022-09-14T14:37:46;6.45;;;2.33;;
50249;SDS011;36133;42.522;27.456;2022-09-14T14:40:18;3.20;;;1.95;;
50249;SDS011;36133;42.522;27.456;2022-09-14T14:42:44;3.78;;;1.83;;
50249;SDS011;36133;42.522;27.456;2022-09-14T14:45:18;3.22;;;1.95;;
50249;SDS011;36133;42.522;27.456;2022-09-14T14:47:46;10.82;;;2.60;;
50249;SDS011;36133;42.522;27.456;2022-09-14T14:50:15;5.45;;;2.40;;
50249;SDS011;36133;42.522;27.456;2022-09-14T14:52:43;5.43;;;2.80;;
50249;SDS011;36133;42.522;27.456;2022-09-14T14:58:24;7.43;;;2.95;;
50249;SDS011;36133;42.522;27.456;2022-09-14T15:00:56;3.58;;;2.03;;
50249;SDS011;36133;42.522;27.456;2022-09-14T15:14:04;4.15;;;2.22;;
50249;SDS011;36133;42.522;27.456;2022-09-14T15:16:35;4.55;;;2.00;;
50249;SDS011;36133;42.522;27.456;2022-09-14T15:22:00;7.03;;;2.20;;
50249;SDS011;36133;42.522;27.456;2022-09-14T15:24:25;6.38;;;2.35;;
50249;SDS011;36133;42.522;27.456;2022-09-14T15:26:51;7.65;;;2.50;;
50249;SDS011;36133;42.522;27.456;2022-09-14T15:29:18;3.78;;;1.90;;
50249;SDS011;36133;42.522;27.456;2022-09-14T15:31:44;3.35;;;2.00;;
50249;SDS011;36133;42.522;27.456;2022-09-14T15:34:16;6.88;;;2.88;;
50249;SDS011;36133;42.522;27.456;2022-09-14T15:36:42;6.68;;;2.03;;
50249;SDS011;36133;42.522;27.456;2022-09-14T15:39:23;6.00;;;2.63;;
50249;SDS011;36133;42.522;27.456;2022-09-14T15:41:50;4.30;;;2.77;;
50249;SDS011;36133;42.522;27.456;2022-09-14T15:44:22;8.50;;;3.25;;
50249;SDS011;36133;42.522;27.456;2022-09-14T15:46:48;6.68;;;3.10;;
50249;SDS011;36133;42.522;27.456;2022-09-14T15:49:21;5.22;;;2.78;;
50249;SDS011;36133;42.522;27.456;2022-09-14T15:51:48;8.02;;;3.85;;
50249;SDS011;36133;42.522;27.456;2022-09-14T15:54:16;10.20;;;3.20;;
50249;SDS011;36133;42.522;27.456;2022-09-14T15:56:54;9.23;;;3.65;;
50249;SDS011;36133;42.522;27.456;2022-09-14T15:59:23;12.65;;;3.30;;
50249;SDS011;36133;42.522;27.456;2022-09-14T16:01:49;4.80;;;2.90;;
50249;SDS011;36133;42.522;27.456;2022-09-14T16:04:15;9.88;;;3.53;;
50249;SDS011;36133;42.522;27.456;2022-09-14T16:06:41;8.77;;;4.22;;
50249;SDS011;36133;42.522;27.456;2022-09-14T16:09:08;11.13;;;4.32;;
50249;SDS011;36133;42.522;27.456;2022-09-14T16:11:35;8.27;;;3.92;;
50249;SDS011;36133;42.522;27.456;2022-09-14T16:14:02;9.38;;;3.97;;
50249;SDS011;36133;42.522;27.456;2022-09-14T16:16:29;10.75;;;4.28;;
50249;SDS011;36133;42.522;27.456;2022-09-14T16:18:55;13.23;;;4.25;;
50249;SDS011;36133;42.522;27.456;2022-09-14T16:21:22;10.77;;;4.68;;
50249;SDS011;36133;42.522;27.456;2022-09-14T16:23:51;11.98;;;4.15;;
50249;SDS011;36133;42.522;27.456;2022-09-14T16:26:20;9.48;;;4.82;;
50249;SDS011;36133;42.522;27.456;2022-09-14T16:28:49;11.18;;;4.60;;
50249;SDS011;36133;42.522;27.456;2022-09-14T16:31:27;9.30;;;4.80;;
50249;SDS011;36133;42.522;27.456;2022-09-14T16:34:02;10.35;;;4.93;;
50249;SDS011;36133;42.522;27.456;2022-09-14T16:36:34;13.10;;;5.43;;
50249;SDS011;36133;42.522;27.456;2022-09-14T16:39:05;20.55;;;6.68;;
50249;SDS011;36133;42.522;27.456;2022-09-14T16:41:34;13.07;;;4.32;;
50249;SDS011;36133;42.522;27.456;2022-09-14T16:44:02;17.67;;;5.00;;
50249;SDS011;36133;42.522;27.456;2022-09-14T16:46:28;12.90;;;5.13;;
50249;SDS011;36133;42.522;27.456;2022-09-14T16:48:58;10.57;;;5.32;;
50249;SDS011;36133;42.522;27.456;2022-09-14T16:51:25;8.35;;;4.53;;
50249;SDS011;36133;42.522;27.456;2022-09-14T16:53:54;8.80;;;4.55;;
50249;SDS011;36133;42.522;27.456;2022-09-14T16:56:21;8.85;;;4.95;;
50249;SDS011;36133;42.522;27.456;2022-09-14T16:58:49;10.40;;;6.95;;
50249;SDS011;36133;42.522;27.456;2022-09-14T17:01:20;12.38;;;5.65;;
50249;SDS011;36133;42.522;27.456;2022-09-14T17:03:48;9.25;;;4.68;;
50249;SDS011;36133;42.522;27.456;2022-09-14T17:06:22;12.07;;;5.60;;
50249;SDS011;36133;42.522;27.456;2022-09-14T17:08:54;13.13;;;5.20;;
50249;SDS011;36133;42.522;27.456;2022-09-14T17:11:24;18.13;;;7.53;;
50249;SDS011;36133;42.522;27.456;2022-09-14T17:13:50;13.68;;;5.93;;
50249;SDS011;36133;42.522;27.456;2022-09-14T17:16:17;19.33;;;6.22;;
50249;SDS011;36133;42.522;27.456;2022-09-14T17:18:45;16.85;;;6.55;;
50249;SDS011;36133;42.522;27.456;2022-09-14T17:21:16;16.40;;;6.35;;
50249;SDS011;36133;42.522;27.456;2022-09-14T17:23:46;13.13;;;5.25;;
50249;SDS011;36133;42.522;27.456;2022-09-14T17:26:13;9.70;;;5.85;;
50249;SDS011;36133;42.522;27.456;2022-09-14T17:28:42;12.77;;;6.10;;
50249;SDS011;36133;42.522;27.456;2022-09-14T17:31:10;15.75;;;5.70;;
50249;SDS011;36133;42.522;27.456;2022-09-14T17:33:37;16.50;;;7.07;;
50249;SDS011;36133;42.522;27.456;2022-09-14T17:36:03;15.77;;;7.50;;
50249;SDS011;36133;42.522;27.456;2022-09-14T17:38:39;19.02;;;8.15;;
50249;SDS011;36133;42.522;27.456;2022-09-14T17:41:07;9.43;;;5.50;;
50249;SDS011;36133;42.522;27.456;2022-09-14T17:43:35;20.60;;;7.50;;
50249;SDS011;36133;42.522;27.456;2022-09-14T17:46:02;14.00;;;6.95;;
50249;SDS011;36133;42.522;27.456;2022-09-14T17:48:33;11.40;;;5.78;;
50249;SDS011;36133;42.522;27.456;2022-09-14T17:51:08;12.38;;;6.20;;